DAL121 KMSP-RJTT
Flight info
| Callsign | DAL121 |
|---|---|
| Flight time | N/A |
| Altitude | 36000 |
| Route | BRNRD DCT MOT DCT 50N106W 52N110W 56N120W 58N130W/N0492F380 DCT YAK DCT SQA DCT NEONN/N0491F390 R220 NANDY/N0494F400 R220 NOGAL/N0486F410 R220 NANAC/N0484F400 Y810 AKRIT Y807 POLIX |
| Aircraft | A359/H-SDE2E3GHIJ3J4J5LM1ORWXY/LB1D1 |
Departure
| Time | 2026-05-06 06:57 |
|---|---|
| Airport | Minneapolis–Saint Paul International Airport / Wold–Chamberlain Field (KMSP) |
Arrival
| Time | N/A |
|---|---|
| Airport | Tokyo Haneda International Airport (RJTT) |
| Time | Latitude | Longitude | Altitude | Speed | Heading |
|---|---|---|---|---|---|
| 2026-05-06 06:30 | 44.88119 | -93.21299 | 827 ft | 0 kts | 45° |
| 2026-05-06 06:44 | 44.88118 | -93.21300 | 831 ft | 1 kts | 45° |
| 2026-05-06 06:45 | 44.88101 | -93.21325 | 824 ft | 4 kts | 46° |
| 2026-05-06 06:45 | 44.88082 | -93.21352 | 823 ft | 4 kts | 45° |
| 2026-05-06 06:45 | 44.88070 | -93.21370 | 823 ft | 4 kts | 60° |
| 2026-05-06 06:45 | 44.88062 | -93.21405 | 824 ft | 4 kts | 94° |
| 2026-05-06 06:46 | 44.88068 | -93.21435 | 824 ft | 1 kts | 122° |
| 2026-05-06 06:46 | 44.88068 | -93.21436 | 824 ft | 0 kts | 122° |
| 2026-05-06 06:48 | 44.88038 | -93.21389 | 824 ft | 14 kts | 132° |
| 2026-05-06 06:48 | 44.87957 | -93.21224 | 826 ft | 27 kts | 121° |
| 2026-05-06 06:49 | 44.87852 | -93.20987 | 828 ft | 28 kts | 121° |
| 2026-05-06 06:49 | 44.87753 | -93.20749 | 827 ft | 28 kts | 121° |
| 2026-05-06 06:49 | 44.87652 | -93.20516 | 824 ft | 28 kts | 122° |
| 2026-05-06 06:49 | 44.87552 | -93.20287 | 826 ft | 24 kts | 121° |
| 2026-05-06 06:50 | 44.87475 | -93.20106 | 829 ft | 17 kts | 121° |
| 2026-05-06 06:50 | 44.87452 | -93.20076 | 831 ft | 0 kts | 162° |
| 2026-05-06 06:55 | 44.87441 | -93.20075 | 828 ft | 7 kts | 175° |
| 2026-05-06 06:55 | 44.87366 | -93.20135 | 826 ft | 7 kts | 246° |
| 2026-05-06 06:56 | 44.87395 | -93.20219 | 829 ft | 21 kts | 301° |
| 2026-05-06 06:56 | 44.87596 | -93.20681 | 824 ft | 90 kts | 301° |
| 2026-05-06 06:56 | 44.88028 | -93.21675 | 823 ft | 150 kts | 301° |
| 2026-05-06 06:56 | 44.88632 | -93.23098 | 1139 ft | 178 kts | 302° |
| 2026-05-06 06:57 | 44.89273 | -93.24568 | 2044 ft | 172 kts | 306° |
| 2026-05-06 06:57 | 44.90092 | -93.25890 | 2596 ft | 189 kts | 316° |
| 2026-05-06 06:57 | 44.90947 | -93.27413 | 2868 ft | 205 kts | 308° |
| 2026-05-06 06:57 | 44.91801 | -93.29139 | 3069 ft | 225 kts | 306° |
| 2026-05-06 06:58 | 44.92698 | -93.31053 | 3400 ft | 240 kts | 305° |
| 2026-05-06 06:58 | 44.93615 | -93.33043 | 3988 ft | 242 kts | 305° |
| 2026-05-06 06:58 | 44.94536 | -93.35035 | 4671 ft | 242 kts | 305° |
| 2026-05-06 06:58 | 44.95466 | -93.37020 | 5327 ft | 243 kts | 305° |
| 2026-05-06 06:59 | 44.96404 | -93.39004 | 6011 ft | 243 kts | 305° |
| 2026-05-06 06:59 | 44.97350 | -93.40988 | 6727 ft | 242 kts | 304° |
| 2026-05-06 06:59 | 44.98286 | -93.42944 | 7324 ft | 246 kts | 304° |
| 2026-05-06 06:59 | 44.99257 | -93.44971 | 7911 ft | 251 kts | 304° |
| 2026-05-06 07:00 | 45.00243 | -93.47030 | 8524 ft | 254 kts | 304° |
| 2026-05-06 07:00 | 45.01231 | -93.49097 | 9159 ft | 257 kts | 303° |
| 2026-05-06 07:00 | 45.02246 | -93.51221 | 9788 ft | 261 kts | 303° |
| 2026-05-06 07:00 | 45.03273 | -93.53376 | 10283 ft | 269 kts | 303° |
| 2026-05-06 07:01 | 45.04351 | -93.55640 | 10550 ft | 285 kts | 303° |
| 2026-05-06 07:01 | 45.05478 | -93.58011 | 10789 ft | 301 kts | 303° |
| 2026-05-06 07:01 | 45.06682 | -93.60543 | 11048 ft | 317 kts | 303° |
| 2026-05-06 07:01 | 45.07944 | -93.63199 | 11301 ft | 331 kts | 303° |
| 2026-05-06 07:02 | 45.09244 | -93.65933 | 11565 ft | 344 kts | 303° |
| 2026-05-06 07:02 | 45.10600 | -93.68789 | 12022 ft | 351 kts | 303° |
| 2026-05-06 07:02 | 45.11972 | -93.71680 | 12577 ft | 355 kts | 302° |
| 2026-05-06 07:02 | 45.13349 | -93.74583 | 13167 ft | 359 kts | 302° |
| 2026-05-06 07:03 | 45.14749 | -93.77538 | 13691 ft | 364 kts | 302° |
| 2026-05-06 07:03 | 45.16168 | -93.80539 | 14201 ft | 367 kts | 302° |
| 2026-05-06 07:03 | 45.17597 | -93.83565 | 14740 ft | 369 kts | 302° |
| 2026-05-06 07:03 | 45.19029 | -93.86600 | 15305 ft | 371 kts | 302° |
| 2026-05-06 07:04 | 45.20447 | -93.89609 | 15859 ft | 373 kts | 302° |
| 2026-05-06 07:04 | 45.21893 | -93.92682 | 16462 ft | 375 kts | 302° |
| 2026-05-06 07:04 | 45.23348 | -93.95777 | 17032 ft | 378 kts | 301° |
| 2026-05-06 07:04 | 45.24813 | -93.98898 | 17623 ft | 381 kts | 301° |
| 2026-05-06 07:05 | 45.26291 | -94.02048 | 18199 ft | 384 kts | 301° |
| 2026-05-06 07:05 | 45.27759 | -94.05182 | 18720 ft | 386 kts | 301° |
| 2026-05-06 07:05 | 45.29256 | -94.08381 | 19191 ft | 389 kts | 301° |
| 2026-05-06 07:05 | 45.30759 | -94.11594 | 19703 ft | 391 kts | 301° |
| 2026-05-06 07:06 | 45.32266 | -94.14822 | 20228 ft | 393 kts | 301° |
| 2026-05-06 07:06 | 45.33786 | -94.18080 | 20734 ft | 395 kts | 300° |
| 2026-05-06 07:06 | 45.35294 | -94.21317 | 21207 ft | 398 kts | 300° |
| 2026-05-06 07:06 | 45.36832 | -94.24622 | 21686 ft | 401 kts | 300° |
| 2026-05-06 07:07 | 45.38375 | -94.27943 | 22157 ft | 403 kts | 300° |
| 2026-05-06 07:07 | 45.39929 | -94.31290 | 22633 ft | 406 kts | 300° |
| 2026-05-06 07:07 | 45.41490 | -94.34656 | 23126 ft | 408 kts | 300° |
| 2026-05-06 07:07 | 45.43061 | -94.38046 | 23576 ft | 411 kts | 300° |
| 2026-05-06 07:08 | 45.44636 | -94.41451 | 23974 ft | 414 kts | 300° |
| 2026-05-06 07:08 | 45.46209 | -94.44854 | 24376 ft | 415 kts | 300° |
| 2026-05-06 07:08 | 45.47802 | -94.48307 | 24787 ft | 417 kts | 300° |
| 2026-05-06 07:08 | 45.49403 | -94.51777 | 25213 ft | 419 kts | 300° |
| 2026-05-06 07:09 | 45.51010 | -94.55269 | 25544 ft | 423 kts | 300° |
| 2026-05-06 07:09 | 45.52629 | -94.58789 | 25925 ft | 425 kts | 300° |
| 2026-05-06 07:09 | 45.54242 | -94.62302 | 26325 ft | 427 kts | 300° |
| 2026-05-06 07:09 | 45.55877 | -94.65864 | 26709 ft | 429 kts | 299° |
| 2026-05-06 07:10 | 45.57515 | -94.69439 | 27069 ft | 431 kts | 300° |
| 2026-05-06 07:10 | 45.59162 | -94.73038 | 27409 ft | 434 kts | 300° |
| 2026-05-06 07:10 | 45.60793 | -94.76608 | 27756 ft | 436 kts | 300° |
| 2026-05-06 07:10 | 45.62458 | -94.80257 | 28128 ft | 438 kts | 299° |
| 2026-05-06 07:11 | 45.64132 | -94.83929 | 28477 ft | 440 kts | 299° |
| 2026-05-06 07:11 | 45.65804 | -94.87604 | 28800 ft | 443 kts | 299° |
| 2026-05-06 07:11 | 45.67488 | -94.91307 | 29121 ft | 445 kts | 299° |
| 2026-05-06 07:11 | 45.69181 | -94.95037 | 29373 ft | 448 kts | 299° |
| 2026-05-06 07:12 | 45.70880 | -94.98786 | 29668 ft | 450 kts | 299° |
| 2026-05-06 07:12 | 45.72594 | -95.02569 | 29966 ft | 452 kts | 299° |
| 2026-05-06 07:12 | 45.74308 | -95.06359 | 30263 ft | 453 kts | 299° |
| 2026-05-06 07:12 | 45.76015 | -95.10134 | 30582 ft | 452 kts | 299° |
| 2026-05-06 07:13 | 45.77705 | -95.13879 | 30845 ft | 453 kts | 299° |
| 2026-05-06 07:13 | 45.79414 | -95.17673 | 31055 ft | 454 kts | 299° |
| 2026-05-06 07:13 | 45.81127 | -95.21481 | 31312 ft | 454 kts | 299° |
| 2026-05-06 07:13 | 45.82844 | -95.25304 | 31573 ft | 454 kts | 299° |
| 2026-05-06 07:14 | 45.84558 | -95.29124 | 31825 ft | 455 kts | 299° |
| 2026-05-06 07:14 | 45.86271 | -95.32949 | 32054 ft | 456 kts | 300° |
| 2026-05-06 07:14 | 45.87993 | -95.36800 | 32225 ft | 458 kts | 300° |
| 2026-05-06 07:14 | 45.89699 | -95.40620 | 32471 ft | 458 kts | 300° |
| 2026-05-06 07:15 | 45.91427 | -95.44491 | 32720 ft | 458 kts | 300° |
| 2026-05-06 07:15 | 45.93147 | -95.48352 | 32960 ft | 458 kts | 300° |
| 2026-05-06 07:15 | 45.94843 | -95.52164 | 33162 ft | 459 kts | 300° |
| 2026-05-06 07:15 | 45.96564 | -95.56036 | 33384 ft | 459 kts | 300° |
| 2026-05-06 07:16 | 45.98292 | -95.59932 | 33580 ft | 460 kts | 300° |
| 2026-05-06 07:16 | 46.00010 | -95.63809 | 33795 ft | 460 kts | 300° |
| 2026-05-06 07:16 | 46.01735 | -95.67709 | 34004 ft | 461 kts | 300° |
| 2026-05-06 07:16 | 46.03434 | -95.71555 | 34195 ft | 461 kts | 300° |
| 2026-05-06 07:17 | 46.05161 | -95.75469 | 34294 ft | 463 kts | 300° |
| 2026-05-06 07:17 | 46.06896 | -95.79408 | 34437 ft | 463 kts | 300° |
| 2026-05-06 07:17 | 46.08598 | -95.83276 | 34608 ft | 463 kts | 300° |
| 2026-05-06 07:17 | 46.10315 | -95.87183 | 34771 ft | 462 kts | 300° |
| 2026-05-06 07:18 | 46.12038 | -95.91110 | 34923 ft | 463 kts | 300° |
| 2026-05-06 07:18 | 46.13763 | -95.95045 | 35057 ft | 463 kts | 300° |
| 2026-05-06 07:18 | 46.15478 | -95.98967 | 35190 ft | 463 kts | 300° |
| 2026-05-06 07:18 | 46.17202 | -96.02913 | 35327 ft | 463 kts | 300° |
| 2026-05-06 07:19 | 46.18923 | -96.06858 | 35471 ft | 463 kts | 300° |
| 2026-05-06 07:19 | 46.20640 | -96.10797 | 35614 ft | 463 kts | 300° |
| 2026-05-06 07:19 | 46.22338 | -96.14701 | 35681 ft | 465 kts | 300° |
| 2026-05-06 07:20 | 46.25797 | -96.22670 | 35877 ft | 466 kts | 300° |
| 2026-05-06 07:20 | 46.27499 | -96.26598 | 36005 ft | 466 kts | 300° |
| 2026-05-06 07:20 | 46.29222 | -96.30581 | 36052 ft | 468 kts | 300° |
| 2026-05-06 07:21 | 46.32689 | -96.38615 | 36060 ft | 472 kts | 300° |
| 2026-05-06 07:21 | 46.36173 | -96.46711 | 36082 ft | 472 kts | 300° |
| 2026-05-06 07:22 | 46.39622 | -96.54746 | 36082 ft | 472 kts | 300° |
| 2026-05-06 07:22 | 46.43095 | -96.62861 | 36088 ft | 474 kts | 300° |
| 2026-05-06 07:23 | 46.46567 | -96.70999 | 36094 ft | 474 kts | 300° |
| 2026-05-06 07:23 | 46.50023 | -96.79123 | 36094 ft | 474 kts | 300° |
| 2026-05-06 07:24 | 46.53483 | -96.87282 | 36090 ft | 474 kts | 300° |
| 2026-05-06 07:24 | 46.56939 | -96.95453 | 36094 ft | 474 kts | 300° |
| 2026-05-06 07:25 | 46.60370 | -97.03590 | 36096 ft | 474 kts | 300° |
| 2026-05-06 07:25 | 46.63815 | -97.11784 | 36096 ft | 474 kts | 300° |
| 2026-05-06 07:26 | 46.67257 | -97.19997 | 36099 ft | 474 kts | 300° |
| 2026-05-06 07:26 | 46.70675 | -97.28176 | 36099 ft | 474 kts | 300° |
| 2026-05-06 07:27 | 46.74104 | -97.36406 | 36102 ft | 474 kts | 300° |
| 2026-05-06 07:27 | 46.77511 | -97.44607 | 36102 ft | 475 kts | 300° |
| 2026-05-06 07:28 | 46.80938 | -97.52881 | 36107 ft | 475 kts | 300° |
| 2026-05-06 07:28 | 46.86047 | -97.65262 | 36098 ft | 475 kts | 300° |
| 2026-05-06 07:29 | 46.89456 | -97.73556 | 36092 ft | 475 kts | 300° |
| 2026-05-06 07:29 | 46.92845 | -97.81825 | 36090 ft | 476 kts | 300° |
| 2026-05-06 07:30 | 46.96242 | -97.90140 | 36082 ft | 476 kts | 300° |
| 2026-05-06 07:30 | 46.99640 | -97.98480 | 36082 ft | 476 kts | 300° |
| 2026-05-06 07:31 | 47.03031 | -98.06831 | 36083 ft | 476 kts | 300° |
| 2026-05-06 07:31 | 47.06416 | -98.15193 | 36088 ft | 476 kts | 300° |
| 2026-05-06 07:32 | 47.09776 | -98.23516 | 36102 ft | 476 kts | 300° |
| 2026-05-06 07:32 | 47.13154 | -98.31913 | 36110 ft | 477 kts | 301° |
| 2026-05-06 07:33 | 47.16507 | -98.40270 | 36113 ft | 477 kts | 301° |
| 2026-05-06 07:33 | 47.19874 | -98.48689 | 36116 ft | 477 kts | 300° |
| 2026-05-06 07:34 | 47.22670 | -98.55702 | 36115 ft | 477 kts | 300° |
| 2026-05-06 07:34 | 47.26023 | -98.64134 | 36126 ft | 477 kts | 300° |
| 2026-05-06 07:35 | 47.29914 | -98.73952 | 36113 ft | 477 kts | 301° |
| 2026-05-06 07:35 | 47.32696 | -98.80994 | 36127 ft | 477 kts | 301° |
| 2026-05-06 07:36 | 47.36042 | -98.89488 | 36130 ft | 477 kts | 301° |
| 2026-05-06 07:36 | 47.39350 | -98.97913 | 36135 ft | 477 kts | 301° |
| 2026-05-06 07:37 | 47.42679 | -99.06415 | 36135 ft | 477 kts | 301° |
| 2026-05-06 07:37 | 47.45997 | -99.14919 | 36141 ft | 477 kts | 301° |
| 2026-05-06 07:38 | 47.49287 | -99.23376 | 36140 ft | 477 kts | 301° |
| 2026-05-06 07:38 | 47.52601 | -99.31921 | 36146 ft | 477 kts | 301° |
| 2026-05-06 07:39 | 47.55872 | -99.40384 | 36153 ft | 476 kts | 301° |
| 2026-05-06 07:39 | 47.59166 | -99.48932 | 36151 ft | 476 kts | 301° |
| 2026-05-06 07:40 | 47.62452 | -99.57487 | 36152 ft | 477 kts | 301° |
| 2026-05-06 07:40 | 47.65710 | -99.65996 | 36151 ft | 477 kts | 301° |
| 2026-05-06 07:41 | 47.68985 | -99.74576 | 36155 ft | 477 kts | 301° |
| 2026-05-06 07:41 | 47.72232 | -99.83110 | 36137 ft | 477 kts | 301° |
| 2026-05-06 07:42 | 47.75495 | -99.91713 | 36153 ft | 477 kts | 301° |
| 2026-05-06 07:42 | 47.78732 | -100.00278 | 36136 ft | 477 kts | 301° |
| 2026-05-06 07:43 | 47.81979 | -100.08894 | 36141 ft | 477 kts | 301° |
| 2026-05-06 07:43 | 47.85224 | -100.17536 | 36158 ft | 477 kts | 301° |
| 2026-05-06 07:44 | 47.88439 | -100.26124 | 36141 ft | 477 kts | 301° |
| 2026-05-06 07:44 | 47.91664 | -100.34767 | 36142 ft | 477 kts | 301° |
| 2026-05-06 07:45 | 47.94889 | -100.43438 | 36136 ft | 477 kts | 301° |
| 2026-05-06 07:45 | 47.98102 | -100.52104 | 36143 ft | 477 kts | 301° |
| 2026-05-06 07:46 | 48.01297 | -100.60750 | 36142 ft | 478 kts | 301° |
| 2026-05-06 07:46 | 48.04503 | -100.69456 | 36124 ft | 478 kts | 301° |
| 2026-05-06 07:47 | 48.07703 | -100.78173 | 36138 ft | 478 kts | 301° |
| 2026-05-06 07:47 | 48.10875 | -100.86843 | 36144 ft | 478 kts | 301° |
| 2026-05-06 07:48 | 48.14068 | -100.95600 | 36148 ft | 478 kts | 301° |
| 2026-05-06 07:48 | 48.17236 | -101.04314 | 36156 ft | 478 kts | 301° |
| 2026-05-06 07:49 | 48.20406 | -101.13065 | 36152 ft | 478 kts | 301° |
| 2026-05-06 07:49 | 48.23575 | -101.21842 | 36146 ft | 478 kts | 301° |
| 2026-05-06 07:50 | 48.26739 | -101.30622 | 36109 ft | 477 kts | 301° |
| 2026-05-06 07:50 | 48.30116 | -101.39191 | 36109 ft | 476 kts | 304° |
| 2026-05-06 07:51 | 48.33581 | -101.47605 | 36088 ft | 476 kts | 304° |
| 2026-05-06 07:51 | 48.37039 | -101.56125 | 36095 ft | 476 kts | 303° |
| 2026-05-06 07:52 | 48.40456 | -101.64675 | 36110 ft | 476 kts | 303° |
| 2026-05-06 07:52 | 48.43855 | -101.73243 | 36116 ft | 476 kts | 303° |
| 2026-05-06 07:53 | 48.47219 | -101.81751 | 36147 ft | 476 kts | 303° |
| 2026-05-06 07:53 | 48.50610 | -101.90348 | 36159 ft | 475 kts | 303° |
| 2026-05-06 07:54 | 48.53987 | -101.98933 | 36156 ft | 475 kts | 303° |
| 2026-05-06 07:54 | 48.57333 | -102.07467 | 36159 ft | 475 kts | 303° |
| 2026-05-06 07:55 | 48.60696 | -102.16071 | 36157 ft | 475 kts | 303° |
| 2026-05-06 07:55 | 48.64058 | -102.24703 | 36135 ft | 475 kts | 303° |
| 2026-05-06 07:56 | 48.67390 | -102.33286 | 36157 ft | 474 kts | 303° |
| 2026-05-06 07:56 | 48.70728 | -102.41911 | 36161 ft | 474 kts | 303° |
| 2026-05-06 07:57 | 48.74037 | -102.50488 | 36163 ft | 474 kts | 303° |
| 2026-05-06 07:57 | 48.77358 | -102.59127 | 36165 ft | 474 kts | 303° |
| 2026-05-06 07:58 | 48.80681 | -102.67798 | 36166 ft | 474 kts | 303° |
| 2026-05-06 07:58 | 48.83987 | -102.76452 | 36169 ft | 474 kts | 303° |
| 2026-05-06 07:59 | 48.87265 | -102.85063 | 36168 ft | 473 kts | 303° |
| 2026-05-06 07:59 | 48.90555 | -102.93731 | 36166 ft | 473 kts | 303° |
| 2026-05-06 08:00 | 48.93850 | -103.02444 | 36156 ft | 473 kts | 303° |
| 2026-05-06 08:00 | 48.97125 | -103.11130 | 36155 ft | 473 kts | 303° |
| 2026-05-06 08:01 | 49.00378 | -103.19788 | 36180 ft | 473 kts | 303° |
| 2026-05-06 08:01 | 49.03646 | -103.28515 | 36176 ft | 473 kts | 303° |
| 2026-05-06 08:02 | 49.06907 | -103.37251 | 36178 ft | 473 kts | 303° |
| 2026-05-06 08:02 | 49.10133 | -103.45924 | 36183 ft | 472 kts | 303° |
| 2026-05-06 08:03 | 49.13376 | -103.54671 | 36183 ft | 472 kts | 303° |
| 2026-05-06 08:03 | 49.16612 | -103.63428 | 36190 ft | 472 kts | 303° |
| 2026-05-06 08:04 | 49.19819 | -103.72135 | 36192 ft | 472 kts | 303° |
| 2026-05-06 08:04 | 49.23034 | -103.80894 | 36205 ft | 472 kts | 303° |
| 2026-05-06 08:05 | 49.26250 | -103.89683 | 36180 ft | 472 kts | 303° |
| 2026-05-06 08:05 | 49.29429 | -103.98404 | 36201 ft | 471 kts | 303° |
| 2026-05-06 08:06 | 49.32620 | -104.07185 | 36206 ft | 471 kts | 303° |
| 2026-05-06 08:06 | 49.35805 | -104.15981 | 36206 ft | 471 kts | 303° |
| 2026-05-06 08:07 | 49.38958 | -104.24716 | 36212 ft | 470 kts | 303° |
| 2026-05-06 08:07 | 49.42125 | -104.33520 | 36212 ft | 471 kts | 303° |
| 2026-05-06 08:08 | 49.45282 | -104.42326 | 36207 ft | 471 kts | 303° |
| 2026-05-06 08:08 | 49.48435 | -104.51151 | 36217 ft | 470 kts | 303° |
| 2026-05-06 08:09 | 49.51572 | -104.59964 | 36217 ft | 469 kts | 303° |
| 2026-05-06 08:09 | 49.54702 | -104.68784 | 36220 ft | 469 kts | 303° |
| 2026-05-06 08:10 | 49.57827 | -104.77620 | 36227 ft | 469 kts | 303° |
| 2026-05-06 08:10 | 49.60921 | -104.86400 | 36228 ft | 469 kts | 303° |
| 2026-05-06 08:11 | 49.64026 | -104.95241 | 36225 ft | 469 kts | 303° |
| 2026-05-06 08:11 | 49.67127 | -105.04104 | 36197 ft | 468 kts | 304° |
| 2026-05-06 08:12 | 49.70213 | -105.12953 | 36232 ft | 466 kts | 304° |
| 2026-05-06 08:12 | 49.73263 | -105.21729 | 36240 ft | 466 kts | 304° |
| 2026-05-06 08:13 | 49.76328 | -105.30575 | 36234 ft | 466 kts | 304° |
| 2026-05-06 08:13 | 49.79383 | -105.39424 | 36238 ft | 466 kts | 304° |
| 2026-05-06 08:14 | 49.82433 | -105.48288 | 36239 ft | 466 kts | 304° |
| 2026-05-06 08:14 | 49.85471 | -105.57153 | 36232 ft | 465 kts | 304° |
| 2026-05-06 08:15 | 49.88475 | -105.65950 | 36227 ft | 463 kts | 304° |
| 2026-05-06 08:15 | 49.91480 | -105.74781 | 36227 ft | 461 kts | 304° |
| 2026-05-06 08:16 | 49.94472 | -105.83596 | 36222 ft | 461 kts | 304° |
| 2026-05-06 08:16 | 49.97462 | -105.92437 | 36222 ft | 462 kts | 304° |
| 2026-05-06 08:17 | 50.00672 | -106.00929 | 36222 ft | 453 kts | 313° |
| 2026-05-06 08:17 | 50.04594 | -106.08576 | 36221 ft | 451 kts | 315° |
| 2026-05-06 08:18 | 50.08619 | -106.16075 | 36225 ft | 450 kts | 316° |
| 2026-05-06 08:18 | 50.12635 | -106.23526 | 36207 ft | 450 kts | 316° |
| 2026-05-06 08:19 | 50.16630 | -106.30990 | 36222 ft | 447 kts | 316° |
| 2026-05-06 08:19 | 50.20604 | -106.38453 | 36218 ft | 445 kts | 316° |
| 2026-05-06 08:20 | 50.24524 | -106.45838 | 36224 ft | 444 kts | 316° |
| 2026-05-06 08:20 | 50.28463 | -106.53277 | 36225 ft | 444 kts | 316° |
| 2026-05-06 08:21 | 50.32396 | -106.60726 | 36221 ft | 444 kts | 316° |
| 2026-05-06 08:21 | 50.36325 | -106.68189 | 36221 ft | 444 kts | 316° |
| 2026-05-06 08:22 | 50.40240 | -106.75652 | 36223 ft | 443 kts | 316° |
| 2026-05-06 08:22 | 50.44125 | -106.83076 | 36220 ft | 442 kts | 316° |
| 2026-05-06 08:23 | 50.48028 | -106.90554 | 36222 ft | 442 kts | 316° |
| 2026-05-06 08:23 | 50.51925 | -106.98043 | 36214 ft | 441 kts | 316° |
| 2026-05-06 08:24 | 50.55799 | -107.05513 | 36197 ft | 440 kts | 316° |
| 2026-05-06 08:24 | 50.59645 | -107.12945 | 36219 ft | 440 kts | 316° |
| 2026-05-06 08:25 | 50.62856 | -107.19167 | 36217 ft | 440 kts | 316° |
| 2026-05-06 08:25 | 50.66716 | -107.26666 | 36216 ft | 440 kts | 316° |
| 2026-05-06 08:26 | 50.70566 | -107.34168 | 36213 ft | 440 kts | 316° |
| 2026-05-06 08:26 | 50.74382 | -107.41627 | 36205 ft | 439 kts | 316° |
| 2026-05-06 08:27 | 50.78221 | -107.49151 | 36215 ft | 439 kts | 316° |
| 2026-05-06 08:27 | 50.82059 | -107.56695 | 36206 ft | 439 kts | 316° |
| 2026-05-06 08:28 | 50.85880 | -107.64228 | 36199 ft | 439 kts | 316° |
| 2026-05-06 08:28 | 50.89680 | -107.71742 | 36207 ft | 438 kts | 316° |
| 2026-05-06 08:29 | 50.93486 | -107.79292 | 36209 ft | 438 kts | 316° |
| 2026-05-06 08:29 | 50.97262 | -107.86802 | 36208 ft | 437 kts | 316° |
| 2026-05-06 08:30 | 51.01051 | -107.94355 | 36209 ft | 437 kts | 316° |
| 2026-05-06 08:30 | 51.04840 | -108.01933 | 36212 ft | 437 kts | 316° |
| 2026-05-06 08:31 | 51.08598 | -108.09473 | 36210 ft | 437 kts | 316° |
| 2026-05-06 08:31 | 51.12381 | -108.17084 | 36206 ft | 437 kts | 316° |
| 2026-05-06 08:32 | 51.16121 | -108.24634 | 36212 ft | 436 kts | 315° |
| 2026-05-06 08:32 | 51.19878 | -108.32239 | 36213 ft | 436 kts | 315° |
| 2026-05-06 08:33 | 51.23623 | -108.39839 | 36169 ft | 435 kts | 316° |
| 2026-05-06 08:33 | 51.27353 | -108.47436 | 36211 ft | 433 kts | 316° |
| 2026-05-06 08:34 | 51.32898 | -108.58768 | 36211 ft | 431 kts | 316° |
| 2026-05-06 08:35 | 51.36593 | -108.66345 | 36213 ft | 431 kts | 316° |
| 2026-05-06 08:35 | 51.40249 | -108.73861 | 36212 ft | 431 kts | 315° |
| 2026-05-06 08:36 | 51.43943 | -108.81479 | 36178 ft | 431 kts | 315° |
| 2026-05-06 08:36 | 51.47608 | -108.89062 | 36139 ft | 431 kts | 315° |
| 2026-05-06 08:37 | 51.51243 | -108.96607 | 36152 ft | 428 kts | 315° |
| 2026-05-06 08:37 | 51.54881 | -109.04180 | 36138 ft | 428 kts | 315° |
| 2026-05-06 08:38 | 51.58517 | -109.11766 | 36136 ft | 428 kts | 315° |
| 2026-05-06 08:38 | 51.62122 | -109.19310 | 36142 ft | 428 kts | 315° |
| 2026-05-06 08:39 | 51.65747 | -109.26921 | 36144 ft | 428 kts | 315° |
| 2026-05-06 08:39 | 51.69367 | -109.34547 | 36169 ft | 426 kts | 315° |
| 2026-05-06 08:40 | 51.72955 | -109.42126 | 36182 ft | 426 kts | 315° |
| 2026-05-06 08:40 | 51.76527 | -109.49693 | 36200 ft | 425 kts | 315° |
| 2026-05-06 08:41 | 51.80118 | -109.57320 | 36213 ft | 426 kts | 315° |
| 2026-05-06 08:41 | 51.83690 | -109.64931 | 36214 ft | 426 kts | 315° |
| 2026-05-06 08:42 | 51.87255 | -109.72550 | 36212 ft | 426 kts | 315° |
| 2026-05-06 08:42 | 51.90839 | -109.80232 | 36213 ft | 426 kts | 315° |
| 2026-05-06 08:43 | 51.94390 | -109.87868 | 36211 ft | 426 kts | 315° |
| 2026-05-06 08:43 | 51.97959 | -109.95564 | 36205 ft | 425 kts | 315° |
| 2026-05-06 08:44 | 52.01511 | -110.03219 | 36211 ft | 422 kts | 315° |
| 2026-05-06 08:44 | 52.05113 | -110.10672 | 36213 ft | 420 kts | 316° |
| 2026-05-06 08:45 | 52.08757 | -110.18149 | 36214 ft | 420 kts | 316° |
| 2026-05-06 08:45 | 52.12362 | -110.25607 | 36217 ft | 420 kts | 315° |
| 2026-05-06 08:46 | 52.15953 | -110.33094 | 36214 ft | 421 kts | 315° |
| 2026-05-06 08:46 | 52.19560 | -110.40646 | 36214 ft | 421 kts | 315° |
| 2026-05-06 08:47 | 52.23136 | -110.48156 | 36212 ft | 420 kts | 315° |
| 2026-05-06 08:47 | 52.26707 | -110.55677 | 36212 ft | 420 kts | 315° |
| 2026-05-06 08:48 | 52.30280 | -110.63221 | 36211 ft | 420 kts | 315° |
| 2026-05-06 08:48 | 52.33860 | -110.70803 | 36210 ft | 420 kts | 315° |
| 2026-05-06 08:49 | 52.37422 | -110.78369 | 36195 ft | 420 kts | 315° |
| 2026-05-06 08:49 | 52.40970 | -110.85928 | 36204 ft | 418 kts | 314° |
| 2026-05-06 08:50 | 52.44501 | -110.93474 | 36205 ft | 417 kts | 314° |
| 2026-05-06 08:50 | 52.48017 | -111.01009 | 36206 ft | 417 kts | 314° |
| 2026-05-06 08:51 | 52.51542 | -111.08585 | 36203 ft | 417 kts | 314° |
| 2026-05-06 08:51 | 52.55052 | -111.16153 | 36200 ft | 417 kts | 314° |
| 2026-05-06 08:52 | 52.58578 | -111.23776 | 36190 ft | 417 kts | 314° |
| 2026-05-06 08:52 | 52.62069 | -111.31348 | 36199 ft | 417 kts | 314° |
| 2026-05-06 08:53 | 52.65581 | -111.38986 | 36200 ft | 417 kts | 314° |
| 2026-05-06 08:53 | 52.69063 | -111.46584 | 36191 ft | 417 kts | 314° |
| 2026-05-06 08:54 | 52.72566 | -111.54252 | 36188 ft | 417 kts | 314° |
| 2026-05-06 08:54 | 52.76043 | -111.61882 | 36114 ft | 417 kts | 313° |
| 2026-05-06 08:55 | 52.79533 | -111.69564 | 36183 ft | 417 kts | 313° |
| 2026-05-06 08:55 | 52.83017 | -111.77260 | 36183 ft | 417 kts | 313° |
| 2026-05-06 08:56 | 52.86479 | -111.84929 | 36179 ft | 417 kts | 313° |
| 2026-05-06 08:56 | 52.89934 | -111.92606 | 36174 ft | 417 kts | 313° |
| 2026-05-06 08:57 | 52.93393 | -112.00313 | 36159 ft | 417 kts | 312° |
| 2026-05-06 08:57 | 52.96859 | -112.08060 | 36167 ft | 417 kts | 312° |
| 2026-05-06 08:58 | 53.00297 | -112.15771 | 36164 ft | 417 kts | 312° |
| 2026-05-06 08:58 | 53.03760 | -112.23558 | 36161 ft | 417 kts | 312° |
| 2026-05-06 08:59 | 53.07201 | -112.31321 | 36158 ft | 417 kts | 312° |
| 2026-05-06 08:59 | 53.10628 | -112.39075 | 36155 ft | 417 kts | 312° |
| 2026-05-06 09:00 | 53.14062 | -112.46869 | 36150 ft | 417 kts | 311° |
| 2026-05-06 09:00 | 53.17493 | -112.54679 | 36157 ft | 418 kts | 311° |
| 2026-05-06 09:01 | 53.20916 | -112.62495 | 36152 ft | 419 kts | 311° |
| 2026-05-06 09:01 | 53.24356 | -112.70380 | 36145 ft | 419 kts | 310° |
| 2026-05-06 09:02 | 53.27784 | -112.78259 | 36146 ft | 419 kts | 310° |
| 2026-05-06 09:02 | 53.31194 | -112.86119 | 36134 ft | 419 kts | 310° |
| 2026-05-06 09:03 | 53.34627 | -112.94058 | 36134 ft | 420 kts | 310° |
| 2026-05-06 09:03 | 53.38040 | -113.01975 | 36134 ft | 420 kts | 310° |
| 2026-05-06 09:04 | 53.41454 | -113.09918 | 36131 ft | 420 kts | 310° |
| 2026-05-06 09:04 | 53.44881 | -113.17920 | 36126 ft | 420 kts | 310° |
| 2026-05-06 09:05 | 53.48277 | -113.25873 | 36124 ft | 420 kts | 310° |
| 2026-05-06 09:05 | 53.51669 | -113.33842 | 36119 ft | 421 kts | 309° |
| 2026-05-06 09:06 | 53.55088 | -113.41897 | 36101 ft | 422 kts | 309° |
| 2026-05-06 09:06 | 53.58484 | -113.49927 | 36111 ft | 423 kts | 309° |
| 2026-05-06 09:07 | 53.61888 | -113.58000 | 36113 ft | 423 kts | 309° |
| 2026-05-06 09:07 | 53.65294 | -113.66108 | 36110 ft | 423 kts | 309° |
| 2026-05-06 09:08 | 53.68680 | -113.74192 | 36053 ft | 423 kts | 308° |
| 2026-05-06 09:08 | 53.72087 | -113.82350 | 36054 ft | 423 kts | 308° |
| 2026-05-06 09:09 | 53.75462 | -113.90459 | 36055 ft | 423 kts | 308° |
| 2026-05-06 09:09 | 53.78853 | -113.98632 | 36063 ft | 423 kts | 308° |
| 2026-05-06 09:10 | 53.82218 | -114.06770 | 36069 ft | 423 kts | 308° |
| 2026-05-06 09:10 | 53.85582 | -114.14931 | 36069 ft | 424 kts | 308° |
| 2026-05-06 09:11 | 53.88960 | -114.23153 | 36080 ft | 424 kts | 308° |
| 2026-05-06 09:11 | 53.92318 | -114.31354 | 36078 ft | 425 kts | 308° |
| 2026-05-06 09:12 | 53.95691 | -114.39617 | 36080 ft | 427 kts | 307° |
| 2026-05-06 09:12 | 53.99080 | -114.47949 | 36082 ft | 427 kts | 307° |
| 2026-05-06 09:13 | 54.02445 | -114.56250 | 36072 ft | 427 kts | 307° |
| 2026-05-06 09:13 | 54.05804 | -114.64561 | 36073 ft | 428 kts | 307° |
| 2026-05-06 09:14 | 54.09185 | -114.72956 | 36069 ft | 428 kts | 307° |
| 2026-05-06 09:14 | 54.12545 | -114.81327 | 36068 ft | 429 kts | 307° |
| 2026-05-06 09:15 | 54.15894 | -114.89697 | 36060 ft | 429 kts | 307° |
| 2026-05-06 09:15 | 54.18687 | -114.96701 | 36061 ft | 429 kts | 306° |
| 2026-05-06 09:16 | 54.22051 | -115.05162 | 36059 ft | 429 kts | 306° |
| 2026-05-06 09:16 | 54.25395 | -115.13601 | 36056 ft | 429 kts | 306° |
| 2026-05-06 09:17 | 54.28738 | -115.22067 | 36052 ft | 429 kts | 306° |
| 2026-05-06 09:17 | 54.32072 | -115.30538 | 36039 ft | 429 kts | 305° |
| 2026-05-06 09:18 | 54.35388 | -115.38992 | 36048 ft | 429 kts | 305° |
| 2026-05-06 09:18 | 54.38717 | -115.47509 | 36049 ft | 429 kts | 305° |
| 2026-05-06 09:19 | 54.42018 | -115.55980 | 36046 ft | 429 kts | 304° |
| 2026-05-06 09:19 | 54.45333 | -115.64521 | 36043 ft | 430 kts | 304° |
| 2026-05-06 09:20 | 54.48656 | -115.73108 | 36034 ft | 430 kts | 304° |
| 2026-05-06 09:20 | 54.51942 | -115.81631 | 36028 ft | 430 kts | 304° |
| 2026-05-06 09:21 | 54.55242 | -115.90217 | 36028 ft | 430 kts | 304° |
| 2026-05-06 09:21 | 54.58539 | -115.98829 | 36015 ft | 430 kts | 304° |
| 2026-05-06 09:22 | 54.61817 | -116.07419 | 36008 ft | 430 kts | 304° |
| 2026-05-06 09:22 | 54.65109 | -116.16078 | 35990 ft | 430 kts | 304° |
| 2026-05-06 09:23 | 54.68373 | -116.24690 | 35991 ft | 430 kts | 303° |
| 2026-05-06 09:23 | 54.71657 | -116.33384 | 35984 ft | 432 kts | 303° |
| 2026-05-06 09:24 | 54.74935 | -116.42097 | 35985 ft | 432 kts | 303° |
| 2026-05-06 09:24 | 54.78221 | -116.50861 | 35971 ft | 433 kts | 303° |
| 2026-05-06 09:25 | 54.81498 | -116.59632 | 35971 ft | 433 kts | 303° |
| 2026-05-06 09:25 | 54.84752 | -116.68371 | 35963 ft | 433 kts | 303° |
| 2026-05-06 09:26 | 54.88016 | -116.77171 | 35964 ft | 433 kts | 303° |
| 2026-05-06 09:26 | 54.91276 | -116.85989 | 35963 ft | 433 kts | 303° |
| 2026-05-06 09:27 | 54.94512 | -116.94770 | 35957 ft | 434 kts | 302° |
| 2026-05-06 09:27 | 54.97764 | -117.03634 | 35957 ft | 434 kts | 302° |
| 2026-05-06 09:28 | 55.01008 | -117.12504 | 35952 ft | 434 kts | 302° |
| 2026-05-06 09:28 | 55.04248 | -117.21395 | 35952 ft | 434 kts | 302° |
| 2026-05-06 09:29 | 55.07457 | -117.30234 | 35943 ft | 434 kts | 302° |
| 2026-05-06 09:29 | 55.10682 | -117.39144 | 35946 ft | 434 kts | 301° |
| 2026-05-06 09:30 | 55.13903 | -117.48083 | 35943 ft | 435 kts | 301° |
| 2026-05-06 09:30 | 55.17121 | -117.57042 | 35944 ft | 434 kts | 301° |
| 2026-05-06 09:31 | 55.20308 | -117.65949 | 35936 ft | 434 kts | 301° |
| 2026-05-06 09:31 | 55.23510 | -117.74932 | 35936 ft | 434 kts | 301° |
| 2026-05-06 09:32 | 55.26711 | -117.83940 | 35938 ft | 435 kts | 301° |
| 2026-05-06 09:32 | 55.29908 | -117.92973 | 35933 ft | 435 kts | 301° |
| 2026-05-06 09:33 | 55.33079 | -118.01966 | 35935 ft | 435 kts | 301° |
| 2026-05-06 09:33 | 55.36267 | -118.11041 | 35930 ft | 435 kts | 301° |
| 2026-05-06 09:34 | 55.39445 | -118.20121 | 35933 ft | 435 kts | 301° |
| 2026-05-06 09:34 | 55.42595 | -118.29155 | 35930 ft | 436 kts | 301° |
| 2026-05-06 09:35 | 55.45762 | -118.38270 | 35931 ft | 436 kts | 300° |
| 2026-05-06 09:35 | 55.48919 | -118.47392 | 35930 ft | 435 kts | 300° |
| 2026-05-06 09:36 | 55.52051 | -118.56475 | 35927 ft | 435 kts | 300° |
| 2026-05-06 09:36 | 55.55193 | -118.65622 | 35928 ft | 435 kts | 300° |
| 2026-05-06 09:37 | 55.58330 | -118.74788 | 35930 ft | 435 kts | 300° |
| 2026-05-06 09:37 | 55.61446 | -118.83926 | 35929 ft | 436 kts | 300° |
| 2026-05-06 09:38 | 55.64573 | -118.93132 | 35926 ft | 436 kts | 300° |
| 2026-05-06 09:38 | 55.67698 | -119.02367 | 35925 ft | 436 kts | 300° |
| 2026-05-06 09:39 | 55.70819 | -119.11626 | 35922 ft | 436 kts | 300° |
| 2026-05-06 09:39 | 55.73917 | -119.20852 | 35920 ft | 436 kts | 300° |
| 2026-05-06 09:40 | 55.77019 | -119.30124 | 35932 ft | 436 kts | 300° |
| 2026-05-06 09:40 | 55.81667 | -119.44088 | 35908 ft | 438 kts | 299° |
| 2026-05-06 09:41 | 55.84758 | -119.53419 | 35909 ft | 438 kts | 299° |
| 2026-05-06 09:41 | 55.87828 | -119.62720 | 35904 ft | 438 kts | 299° |
| 2026-05-06 09:42 | 55.90908 | -119.72090 | 35903 ft | 438 kts | 299° |
| 2026-05-06 09:42 | 55.93985 | -119.81485 | 35900 ft | 438 kts | 299° |
| 2026-05-06 09:43 | 55.97053 | -119.90892 | 35889 ft | 438 kts | 299° |
| 2026-05-06 09:43 | 56.00026 | -120.00335 | 35874 ft | 438 kts | 294° |
| 2026-05-06 09:44 | 56.02597 | -120.10195 | 35875 ft | 438 kts | 294° |
| 2026-05-06 09:44 | 56.05095 | -120.20143 | 35877 ft | 438 kts | 293° |
| 2026-05-06 09:45 | 56.07573 | -120.30111 | 35865 ft | 438 kts | 293° |
| 2026-05-06 09:45 | 56.10033 | -120.40026 | 35853 ft | 438 kts | 293° |
| 2026-05-06 09:46 | 56.12523 | -120.50086 | 35845 ft | 439 kts | 292° |
| 2026-05-06 09:46 | 56.14979 | -120.60056 | 35833 ft | 439 kts | 292° |
| 2026-05-06 09:47 | 56.17441 | -120.70095 | 35831 ft | 439 kts | 292° |
| 2026-05-06 09:47 | 56.19876 | -120.80066 | 35835 ft | 439 kts | 292° |
| 2026-05-06 09:48 | 56.22323 | -120.90133 | 35834 ft | 439 kts | 292° |
| 2026-05-06 09:48 | 56.24766 | -121.00227 | 35865 ft | 439 kts | 292° |
| 2026-05-06 09:49 | 56.27184 | -121.10269 | 35860 ft | 439 kts | 292° |
| 2026-05-06 09:49 | 56.29614 | -121.20410 | 35858 ft | 440 kts | 291° |
| 2026-05-06 09:50 | 56.32016 | -121.30474 | 35855 ft | 439 kts | 291° |
| 2026-05-06 09:50 | 56.34424 | -121.40612 | 35850 ft | 440 kts | 291° |
| 2026-05-06 09:51 | 56.36836 | -121.50821 | 35854 ft | 443 kts | 291° |
| 2026-05-06 09:51 | 56.39246 | -121.61070 | 35859 ft | 443 kts | 291° |
| 2026-05-06 09:52 | 56.41632 | -121.71262 | 35845 ft | 444 kts | 290° |
| 2026-05-06 09:52 | 56.44031 | -121.81555 | 35847 ft | 444 kts | 290° |
| 2026-05-06 09:53 | 56.46417 | -121.91847 | 35846 ft | 444 kts | 290° |
| 2026-05-06 09:53 | 56.48796 | -122.02155 | 35845 ft | 444 kts | 290° |
| 2026-05-06 09:54 | 56.51158 | -122.12442 | 35840 ft | 444 kts | 290° |
| 2026-05-06 09:54 | 56.53518 | -122.22770 | 35839 ft | 443 kts | 290° |
| 2026-05-06 09:55 | 56.55871 | -122.33113 | 35852 ft | 443 kts | 290° |
| 2026-05-06 09:55 | 56.58196 | -122.43385 | 35856 ft | 442 kts | 289° |
| 2026-05-06 09:56 | 56.60520 | -122.53706 | 35848 ft | 441 kts | 289° |
| 2026-05-06 09:56 | 56.62837 | -122.64047 | 35852 ft | 441 kts | 289° |
| 2026-05-06 09:57 | 56.65132 | -122.74345 | 35864 ft | 441 kts | 289° |
| 2026-05-06 09:57 | 56.67433 | -122.84715 | 35857 ft | 441 kts | 289° |
| 2026-05-06 09:58 | 56.69706 | -122.95004 | 35851 ft | 441 kts | 288° |